createdAt,value
2019-05-20T00:01:41.870Z,15.50
2019-05-20T00:04:10.073Z,15.70
2019-05-20T00:06:38.277Z,16.30
2019-05-20T00:09:06.608Z,15.50
2019-05-20T00:11:34.941Z,16.00
2019-05-20T00:14:03.120Z,16.37
2019-05-20T00:16:31.379Z,15.90
2019-05-20T00:18:59.542Z,16.37
2019-05-20T00:21:27.735Z,16.50
2019-05-20T00:23:55.971Z,16.37
2019-05-20T00:26:24.174Z,15.80
2019-05-20T00:28:52.399Z,17.30
2019-05-20T00:31:20.676Z,14.40
2019-05-20T00:33:49.240Z,16.57
2019-05-20T00:36:17.677Z,16.50
2019-05-20T00:38:47.541Z,16.07
2019-05-20T00:41:15.727Z,17.03
2019-05-20T00:43:43.886Z,17.77
2019-05-20T00:46:12.165Z,18.00
2019-05-20T00:48:40.328Z,19.00
2019-05-20T00:51:08.507Z,17.67
2019-05-20T00:53:36.670Z,17.30
2019-05-20T00:56:04.890Z,18.40
2019-05-20T00:58:33.044Z,17.10
2019-05-20T01:01:01.290Z,19.87
2019-05-20T01:03:29.458Z,19.00
2019-05-20T01:05:57.650Z,20.40
2019-05-20T01:08:25.815Z,18.77
2019-05-20T01:10:54.074Z,19.70
2019-05-20T01:13:22.239Z,21.10
2019-05-20T01:15:50.520Z,18.90
2019-05-20T01:18:18.674Z,20.10
2019-05-20T01:20:46.918Z,21.37
2019-05-20T01:23:15.080Z,20.00
2019-05-20T01:25:43.238Z,20.20
2019-05-20T01:28:11.506Z,21.17
2019-05-20T01:30:39.684Z,20.50
2019-05-20T01:33:13.718Z,21.87
2019-05-20T01:35:37.832Z,21.10
2019-05-20T01:38:06.050Z,12.57
2019-05-20T01:40:34.262Z,12.63
2019-05-20T01:43:02.458Z,14.43
2019-05-20T01:45:30.615Z,13.73
2019-05-20T01:47:58.797Z,17.20
2019-05-20T01:50:26.999Z,18.77
2019-05-20T01:52:55.259Z,20.43
2019-05-20T01:55:23.433Z,19.30
2019-05-20T01:57:51.694Z,20.33
2019-05-20T02:00:20.238Z,14.27
2019-05-20T02:02:48.505Z,14.87
2019-05-20T02:05:16.795Z,16.80
2019-05-20T02:07:45.487Z,19.10
2019-05-20T02:10:34.558Z,20.23
2019-05-20T02:13:02.819Z,20.57
2019-05-20T02:15:38.752Z,21.30
2019-05-20T02:18:07.019Z,22.20
2019-05-20T02:20:35.183Z,21.90
2019-05-20T02:23:13.788Z,24.73
2019-05-20T02:25:46.691Z,23.77
2019-05-20T02:28:13.565Z,24.03
2019-05-20T02:30:42.125Z,23.13
2019-05-20T02:33:10.603Z,23.00
2019-05-20T02:35:38.864Z,26.00
2019-05-20T02:38:07.380Z,23.43
2019-05-20T02:40:35.637Z,22.67
2019-05-20T02:43:04.340Z,23.57
2019-05-20T02:45:32.601Z,25.30
2019-05-20T02:48:00.769Z,24.17
2019-05-20T02:50:29.341Z,26.60
2019-05-20T02:52:57.842Z,25.40
2019-05-20T02:55:26.108Z,24.80
2019-05-20T02:57:54.271Z,23.97
2019-05-20T03:00:22.597Z,22.77
2019-05-20T03:02:50.831Z,23.47
2019-05-20T03:05:19.089Z,21.87
2019-05-20T03:07:47.279Z,22.20
2019-05-20T03:10:15.707Z,22.10
2019-05-20T03:12:43.965Z,24.20
2019-05-20T03:15:12.567Z,22.27
2019-05-20T03:18:00.076Z,24.90
2019-05-20T03:20:28.261Z,23.40
2019-05-20T03:22:56.503Z,26.60
2019-05-20T03:25:24.762Z,27.30
2019-05-20T03:27:53.263Z,26.27
2019-05-20T03:30:21.602Z,26.40
2019-05-20T03:32:49.851Z,25.07
2019-05-20T03:35:18.630Z,27.07
2019-05-20T03:37:46.861Z,27.50
2019-05-20T03:40:15.210Z,28.10
2019-05-20T03:42:43.451Z,30.53
2019-05-20T03:45:11.911Z,30.00
2019-05-20T03:47:40.489Z,31.53
2019-05-20T03:50:09.347Z,29.80
2019-05-20T03:52:37.505Z,30.83
2019-05-20T03:55:08.364Z,32.50
2019-05-20T03:57:37.712Z,30.57
2019-05-20T04:00:07.664Z,31.68
2019-05-20T04:02:35.908Z,16.27
2019-05-20T04:05:04.839Z,25.83
2019-05-20T04:07:33.332Z,24.83
2019-05-20T04:10:01.592Z,25.93
2019-05-20T04:12:29.757Z,28.90
2019-05-20T04:14:57.943Z,31.07
2019-05-20T04:17:26.200Z,26.57
2019-05-20T04:19:54.428Z,25.00
2019-05-20T04:22:22.673Z,29.83
2019-05-20T04:24:51.181Z,28.90
2019-05-20T04:27:19.428Z,27.80
2019-05-20T04:29:47.610Z,26.27
2019-05-20T04:32:15.774Z,27.67
2019-05-20T04:34:44.287Z,24.63
2019-05-20T04:37:12.463Z,27.50
2019-05-20T04:39:40.689Z,31.13
2019-05-20T04:42:08.954Z,30.57
2019-05-20T04:44:37.115Z,30.13
2019-05-20T04:47:05.307Z,34.13
2019-05-20T04:49:33.460Z,35.03
2019-05-20T04:52:01.718Z,37.10
2019-05-20T04:56:53.583Z,33.80
2019-05-20T04:59:21.809Z,32.17
2019-05-20T05:01:50.335Z,35.30
2019-05-20T05:04:18.631Z,36.83
2019-05-20T05:06:47.223Z,34.93
2019-05-20T05:09:15.803Z,35.03
2019-05-20T05:11:44.173Z,34.53
2019-05-20T05:14:12.343Z,38.00
2019-05-20T05:16:40.934Z,38.43
2019-05-20T05:19:09.115Z,36.57
2019-05-20T05:21:37.848Z,36.57
2019-05-20T05:24:06.076Z,38.30
2019-05-20T05:26:34.258Z,39.80
2019-05-20T05:29:02.510Z,37.37
2019-05-20T05:31:31.103Z,39.87
2019-05-20T05:33:59.335Z,41.13
2019-05-20T05:36:27.533Z,40.97
2019-05-20T05:38:55.744Z,38.13
2019-05-20T05:41:24.315Z,41.77
2019-05-20T05:43:52.551Z,41.57
2019-05-20T05:46:20.809Z,40.77
2019-05-20T05:48:48.975Z,37.97
2019-05-20T05:51:17.155Z,37.50
2019-05-20T05:53:45.322Z,36.47
2019-05-20T05:56:13.511Z,35.97
2019-05-20T05:58:41.677Z,40.87
2019-05-20T06:01:09.956Z,37.97
2019-05-20T06:03:38.771Z,39.77
2019-05-20T06:06:12.085Z,42.00
2019-05-20T06:08:36.886Z,41.50
2019-05-20T06:11:05.165Z,38.77
2019-05-20T06:13:33.474Z,38.70
2019-05-20T06:16:02.213Z,36.73
2019-05-20T06:18:30.459Z,39.97
2019-05-20T06:20:58.709Z,37.33
2019-05-20T06:23:27.010Z,36.10
2019-05-20T06:25:55.176Z,38.10
2019-05-20T06:28:23.387Z,37.40
2019-05-20T06:30:51.766Z,37.23
2019-05-20T06:33:19.963Z,38.87
2019-05-20T06:35:48.492Z,38.53
2019-05-20T06:38:18.662Z,40.17
2019-05-20T06:40:46.825Z,39.43
2019-05-20T06:43:15.086Z,39.57
2019-05-20T06:45:43.828Z,40.07
2019-05-20T06:48:12.094Z,38.53
2019-05-20T06:50:40.298Z,38.70
2019-05-20T06:53:08.498Z,36.23
2019-05-20T06:55:36.730Z,35.93
2019-05-20T06:58:04.919Z,36.73
2019-05-20T07:00:36.700Z,40.50
2019-05-20T07:03:05.058Z,36.00
2019-05-20T07:05:33.384Z,35.67
2019-05-20T07:08:01.639Z,36.07
2019-05-20T07:10:30.158Z,35.17
2019-05-20T07:12:58.424Z,34.60
2019-05-20T07:15:26.652Z,34.80
2019-05-20T07:17:54.839Z,35.63
2019-05-20T07:20:23.084Z,34.87
2019-05-20T07:22:56.010Z,34.37
2019-05-20T07:25:21.363Z,33.80
2019-05-20T07:27:49.730Z,36.03
2019-05-20T07:30:18.045Z,33.43
2019-05-20T07:32:46.305Z,32.50
2019-05-20T07:35:28.650Z,35.33
2019-05-20T07:37:44.516Z,34.50
2019-05-20T07:40:13.037Z,31.47
2019-05-20T07:42:41.258Z,31.23
2019-05-20T07:45:09.565Z,32.90
2019-05-20T07:47:37.950Z,32.50
2019-05-20T07:50:06.555Z,32.70
2019-05-20T07:52:35.373Z,34.10
2019-05-20T07:55:03.876Z,34.53
2019-05-20T07:57:33.674Z,34.73
2019-05-20T08:00:02.026Z,35.27
2019-05-20T08:02:30.314Z,35.37
2019-05-20T08:04:58.617Z,35.43
2019-05-20T08:07:41.371Z,33.57
2019-05-20T08:09:57.148Z,36.00
2019-05-20T08:12:25.432Z,34.53
2019-05-20T08:14:53.655Z,37.00
2019-05-20T08:17:21.889Z,37.70
2019-05-20T08:19:50.206Z,36.67
2019-05-20T08:22:18.474Z,33.40
2019-05-20T08:24:46.790Z,35.03
2019-05-20T08:27:15.080Z,34.97
2019-05-20T08:29:43.346Z,34.17
2019-05-20T08:32:11.583Z,35.33
2019-05-20T08:34:44.096Z,33.23
2019-05-20T08:40:07.884Z,32.73
2019-05-20T08:42:36.111Z,30.47
2019-05-20T08:45:14.935Z,32.00
2019-05-20T08:47:46.071Z,29.90
2019-05-20T08:50:16.337Z,31.23
2019-05-20T08:52:44.827Z,31.37
2019-05-20T08:55:13.123Z,31.53
2019-05-20T09:00:31.347Z,29.07
2019-05-20T09:03:01.198Z,32.10
2019-05-20T09:14:53.879Z,32.20
2019-05-20T09:23:43.500Z,31.87
2019-05-20T09:29:23.497Z,35.03
2019-05-20T09:38:17.784Z,33.50
2019-05-20T09:40:41.719Z,34.00
2019-05-20T09:43:17.526Z,35.73
2019-05-20T09:48:48.439Z,34.90
2019-05-20T09:51:34.508Z,37.87
2019-05-20T10:03:03.240Z,37.00
2019-05-20T10:05:31.757Z,39.27
2019-05-20T10:08:08.748Z,39.00
2019-05-20T10:10:53.867Z,40.20
2019-05-20T10:13:29.649Z,38.07
2019-05-20T10:15:57.971Z,36.33
2019-05-20T10:18:36.526Z,39.00
2019-05-20T10:24:00.951Z,38.90
2019-05-20T10:26:34.048Z,38.73
2019-05-20T10:29:02.358Z,39.67
2019-05-20T10:31:32.130Z,39.20
2019-05-20T10:37:18.070Z,40.07
2019-05-20T10:42:56.253Z,39.10
2019-05-20T10:45:27.878Z,39.23
2019-05-20T10:47:56.125Z,38.13
2019-05-20T10:50:42.206Z,39.73
2019-05-20T10:53:16.149Z,40.77
2019-05-20T11:01:21.744Z,37.83
2019-05-20T11:03:49.912Z,41.47
2019-05-20T11:12:16.858Z,39.60
2019-05-20T11:14:48.080Z,40.80
2019-05-20T11:17:34.389Z,40.50
2019-05-20T11:20:04.652Z,40.07
2019-05-20T11:22:32.841Z,37.90
2019-05-20T11:28:04.774Z,38.57
2019-05-20T11:30:33.106Z,40.10
2019-05-20T11:35:53.084Z,36.33
2019-05-20T11:38:32.135Z,38.40
2019-05-20T11:41:05.014Z,38.50
2019-05-20T11:46:25.353Z,40.47
2019-05-20T11:51:47.772Z,38.13
2019-05-20T11:57:09.336Z,38.70
2019-05-20T11:59:37.576Z,38.53
2019-05-20T12:02:05.775Z,41.70
2019-05-20T12:07:24.570Z,42.10
2019-05-20T12:12:54.733Z,40.67
2019-05-20T12:15:25.912Z,41.77
2019-05-20T12:21:01.308Z,39.70
2019-05-20T12:26:17.253Z,41.00
2019-05-20T12:31:37.860Z,39.47
2019-05-20T12:34:11.017Z,40.20
2019-05-20T12:36:39.597Z,38.50
2019-05-20T12:39:07.893Z,42.07
2019-05-20T12:41:41.274Z,39.50
2019-05-20T12:44:45.792Z,41.53
2019-05-20T12:50:20.107Z,39.43
2019-05-20T12:55:54.237Z,42.53
2019-05-20T12:58:27.051Z,40.20
2019-05-20T13:00:57.113Z,39.70
2019-05-20T13:03:26.835Z,41.60
2019-05-20T13:06:00.086Z,40.33
2019-05-20T13:08:46.437Z,44.00
2019-05-20T13:17:07.044Z,39.20
2019-05-20T13:22:54.402Z,40.50
2019-05-20T13:25:58.186Z,38.80
2019-05-20T13:28:31.086Z,39.33
2019-05-20T13:31:01.305Z,37.03
2019-05-20T13:33:29.882Z,36.40
2019-05-20T13:36:00.278Z,35.93
2019-05-20T13:38:57.619Z,37.67
2019-05-20T13:41:26.122Z,38.80
2019-05-20T13:43:54.724Z,38.50
2019-05-20T13:49:15.579Z,37.50
2019-05-20T13:51:44.270Z,41.20
2019-05-20T13:54:12.544Z,38.97
2019-05-20T13:59:53.142Z,38.07
2019-05-20T14:05:14.636Z,38.50
2019-05-20T14:07:44.789Z,38.03
2019-05-20T14:10:24.021Z,37.70
2019-05-20T14:12:52.266Z,37.90
2019-05-20T14:15:31.087Z,39.47
2019-05-20T14:20:47.634Z,39.57
2019-05-20T14:23:18.915Z,37.37
2019-05-20T14:25:48.976Z,37.20
2019-05-20T14:31:31.980Z,36.07
2019-05-20T14:43:17.043Z,34.27
2019-05-20T14:45:59.278Z,35.70
2019-05-20T14:48:31.352Z,33.47
2019-05-20T14:53:56.750Z,33.47
2019-05-20T14:56:30.589Z,33.10
2019-05-20T15:02:01.654Z,34.30
2019-05-20T15:07:31.625Z,33.67
2019-05-20T15:09:59.850Z,34.40
2019-05-20T15:12:30.293Z,33.20
2019-05-20T15:15:23.781Z,32.90
2019-05-20T15:21:00.020Z,30.53
2019-05-20T15:23:28.350Z,33.80
2019-05-20T15:25:56.633Z,32.77
2019-05-20T15:28:29.182Z,34.10
2019-05-20T15:30:57.459Z,34.97
2019-05-20T15:33:25.705Z,34.10
2019-05-20T15:44:34.143Z,34.27
2019-05-20T15:47:05.782Z,34.07
2019-05-20T15:49:37.185Z,33.00
2019-05-20T15:52:05.496Z,32.87
2019-05-20T15:54:39.040Z,30.33
2019-05-20T15:57:08.622Z,29.63
2019-05-20T15:59:45.880Z,32.30
2019-05-20T16:05:16.909Z,31.90
2019-05-20T16:14:14.921Z,30.80
2019-05-20T16:20:20.731Z,29.30
2019-05-20T16:22:49.301Z,29.10
2019-05-20T16:28:46.249Z,31.00
2019-05-20T16:31:19.602Z,29.60
2019-05-20T16:36:39.077Z,29.03
2019-05-20T16:39:14.633Z,28.43
2019-05-20T16:41:42.821Z,29.47
2019-05-20T16:44:13.678Z,29.17
2019-05-20T16:55:24.719Z,29.60
2019-05-20T16:57:53.236Z,30.17
2019-05-20T17:00:40.778Z,29.77
2019-05-20T17:03:13.421Z,31.53
2019-05-20T17:08:42.414Z,33.50
2019-05-20T17:11:10.666Z,32.87
2019-05-20T17:16:26.112Z,33.70
2019-05-20T17:19:01.575Z,33.17
2019-05-20T17:21:49.332Z,33.63
2019-05-20T17:24:21.886Z,34.90
2019-05-20T17:26:51.800Z,31.40
2019-05-20T17:32:11.481Z,34.73
2019-05-20T17:34:39.724Z,34.27
2019-05-20T17:37:12.888Z,34.60
2019-05-20T17:39:48.385Z,34.80
2019-05-20T17:42:29.905Z,34.50
2019-05-20T17:47:45.590Z,31.90
2019-05-20T17:56:12.867Z,33.20
2019-05-20T17:58:43.087Z,34.67
2019-05-20T18:10:24.717Z,34.27
2019-05-20T18:12:54.330Z,33.37
2019-05-20T18:15:26.995Z,32.57
2019-05-20T18:17:56.842Z,33.20
2019-05-20T18:20:26.952Z,30.83
2019-05-20T18:25:45.359Z,33.47
2019-05-20T18:31:08.346Z,33.63
2019-05-20T18:36:31.986Z,34.37
2019-05-20T18:39:00.213Z,36.00
2019-05-20T18:44:38.913Z,34.77
2019-05-20T18:47:09.823Z,35.87
2019-05-20T18:49:41.143Z,34.40
2019-05-20T18:52:08.210Z,35.90
2019-05-20T18:54:54.896Z,33.80
2019-05-20T18:57:30.666Z,33.80
2019-05-20T19:00:05.143Z,35.37
2019-05-20T19:05:55.727Z,35.43
2019-05-20T19:08:25.713Z,35.93
2019-05-20T19:10:54.004Z,33.27
2019-05-20T19:19:07.384Z,35.50
2019-05-20T19:21:37.149Z,34.07
2019-05-20T19:26:57.918Z,33.00
2019-05-20T19:32:34.358Z,35.17
2019-05-20T19:35:20.777Z,34.03
2019-05-20T19:44:15.194Z,32.33
2019-05-20T19:46:43.442Z,31.47
2019-05-20T19:49:11.634Z,32.50
2019-05-20T19:51:53.203Z,33.17
2019-05-20T19:57:19.333Z,28.77
2019-05-20T19:59:47.524Z,29.67
2019-05-20T20:05:04.659Z,26.67
2019-05-20T20:07:32.924Z,27.00
2019-05-20T20:13:10.218Z,26.90
2019-05-20T20:15:38.429Z,25.60
2019-05-20T20:18:06.610Z,24.40
2019-05-20T20:20:36.735Z,25.20
2019-05-20T20:23:24.843Z,24.67
2019-05-20T20:25:56.077Z,22.47
2019-05-20T20:28:42.326Z,23.27
2019-05-20T20:34:01.889Z,23.07
2019-05-20T20:36:32.750Z,23.37
2019-05-20T20:39:08.557Z,24.73
2019-05-20T20:41:43.993Z,22.00
2019-05-20T20:44:15.296Z,22.03
2019-05-20T20:46:43.542Z,21.70
2019-05-20T20:49:15.930Z,21.60
2019-05-20T20:57:34.270Z,21.20
2019-05-20T21:06:03.455Z,21.57
2019-05-20T21:08:34.309Z,23.53
2019-05-20T21:11:04.229Z,21.37
2019-05-20T21:13:32.469Z,22.70
2019-05-20T21:18:49.922Z,25.53
2019-05-20T21:24:29.771Z,25.03
2019-05-20T21:26:58.130Z,24.47
2019-05-20T21:35:31.497Z,26.80
2019-05-20T21:38:02.321Z,24.70
2019-05-20T21:43:26.540Z,25.77
2019-05-20T21:48:57.243Z,22.60
2019-05-20T21:51:44.360Z,23.97
2019-05-20T21:57:07.313Z,23.73
2019-05-20T21:59:35.641Z,23.17
2019-05-20T22:02:03.917Z,23.60
2019-05-20T22:04:32.195Z,22.33
2019-05-20T22:10:26.653Z,20.73
2019-05-20T22:13:03.462Z,23.27
2019-05-20T22:18:44.643Z,21.87
2019-05-20T22:21:17.017Z,21.43
2019-05-20T22:23:55.868Z,23.20
2019-05-20T22:29:19.938Z,18.33
2019-05-20T22:31:52.778Z,21.77
2019-05-20T22:37:08.491Z,19.33
2019-05-20T22:39:36.878Z,21.63
2019-05-20T22:44:58.480Z,22.70
2019-05-20T22:50:16.807Z,20.07
2019-05-20T22:52:45.948Z,20.93
2019-05-20T22:55:15.706Z,20.53
2019-05-20T22:57:52.447Z,22.70
2019-05-20T23:00:25.485Z,23.10
2019-05-20T23:02:56.588Z,25.17
2019-05-20T23:05:28.898Z,26.27
2019-05-20T23:07:57.160Z,22.90
2019-05-20T23:10:27.967Z,26.73
2019-05-20T23:15:46.084Z,26.20
2019-05-20T23:24:27.379Z,24.80
2019-05-20T23:29:47.790Z,27.10
2019-05-20T23:32:17.637Z,27.77
2019-05-20T23:37:43.913Z,24.97
2019-05-20T23:40:16.773Z,26.27
2019-05-20T23:43:00.072Z,27.17
2019-05-20T23:45:47.093Z,27.50
2019-05-20T23:48:15.310Z,26.23
2019-05-20T23:50:43.470Z,27.90
2019-05-20T23:53:29.678Z,27.43
2019-05-20T23:55:57.956Z,27.00
2019-05-20T23:58:28.813Z,26.93
